Time;durP1;ratioP1;P1;durP2;ratioP2;P2;SDS_P1;SDS_P2;PMS_P1;PMS_P2;Temp;Humidity;BMP_temperature;BMP_pressure;BME280_temperature;BME280_humidity;BME280_pressure;Samples;Min_cycle;Max_cycle;Signal;HPM_P1;HPM_P2
2022/12/23 00:01:01;;;;;;;0.00;0.00;;;;;;;11.17;84.86;99229.41;10331941;28;20047;-61
2022/12/23 00:06:07;;;;;;;0.00;0.00;;;;;;;11.16;85.15;99232.31;10332482;28;20063;-59
2022/12/23 00:11:16;;;;;;;0.00;0.00;;;;;;;11.20;84.60;99234.38;10332296;28;20062;-59
2022/12/23 00:16:17;;;;;;;0.00;0.00;;;;;;;11.23;84.59;99236.66;10333463;28;20057;-59
2022/12/23 00:21:19;;;;;;;0.00;0.00;;;;;;;11.18;85.13;99230.25;10331524;28;20062;-60
2022/12/23 00:26:26;;;;;;;0.00;0.00;;;;;;;11.20;84.70;99228.19;10326744;28;20046;-59
2022/12/23 00:31:27;;;;;;;0.00;0.00;;;;;;;11.22;85.12;99216.19;10326616;28;20050;-59
2022/12/23 00:36:29;;;;;;;0.00;0.00;;;;;;;11.17;85.03;99207.91;10325512;28;20130;-60
2022/12/23 00:46:51;;;;;;;0.00;0.00;;;;;;;11.17;84.68;99217.84;10320439;28;20042;-60
2022/12/23 00:51:53;;;;;;;0.00;0.00;;;;;;;11.19;84.67;99215.75;10321696;28;20038;-59
2022/12/23 00:56:54;;;;;;;0.00;0.00;;;;;;;11.19;84.79;99226.53;10320268;28;20039;-59
2022/12/23 01:07:16;;;;;;;0.00;0.00;;;;;;;11.36;84.27;99230.44;10320709;28;20053;-59
2022/12/23 01:12:17;;;;;;;0.00;0.00;;;;;;;11.34;84.08;99239.75;10322852;28;20054;-59
2022/12/23 01:17:19;;;;;;;0.00;0.00;;;;;;;11.32;84.43;99237.28;10324138;28;20053;-58
2022/12/23 01:22:20;;;;;;;0.00;0.00;;;;;;;11.35;84.36;99230.66;10329575;28;20050;-60
2022/12/23 01:27:22;;;;;;;0.00;0.00;;;;;;;11.32;84.42;99242.66;10325847;28;20401;-60
2022/12/23 01:32:23;;;;;;;0.00;0.00;;;;;;;11.29;84.05;99257.38;10327537;28;20047;-58
2022/12/23 01:37:24;;;;;;;0.00;0.00;;;;;;;11.34;83.97;99259.41;10326603;28;20049;-60
2022/12/23 01:42:45;;;;;;;0.00;0.00;;;;;;;11.44;84.19;99273.28;10327847;28;20038;-60
2022/12/23 01:47:59;;;;;;;0.00;0.00;;;;;;;11.37;84.22;99285.88;10327755;28;20038;-59
2022/12/23 01:53:07;;;;;;;0.00;0.00;;;;;;;11.30;84.52;99296.66;10328148;28;20070;-59
2022/12/23 01:58:33;;;;;;;0.00;0.00;;;;;;;11.27;84.47;99291.69;10327310;28;20117;-60
2022/12/23 02:03:41;;;;;;;0.00;0.00;;;;;;;11.27;84.56;99290.88;10322358;28;20042;-59
2022/12/23 02:20:04;;;;;;;0.00;0.00;;;;;;;11.22;84.25;99309.50;10320380;28;20053;-59
2022/12/23 02:26:01;;;;;;;0.00;0.00;;;;;;;11.23;84.33;99328.09;10320349;28;20054;-59
2022/12/23 02:31:14;;;;;;;0.00;0.00;;;;;;;11.15;84.51;99331.00;10307763;28;20054;-60
2022/12/23 02:36:24;;;;;;;0.00;0.00;;;;;;;11.11;84.28;99327.88;10322280;28;20065;-59
2022/12/23 02:41:36;;;;;;;0.00;0.00;;;;;;;11.19;84.22;99332.25;10326924;28;20100;-58
2022/12/23 02:46:45;;;;;;;0.00;0.00;;;;;;;11.18;84.36;99340.53;10327209;28;20050;-58
2022/12/23 02:51:51;;;;;;;0.00;0.00;;;;;;;11.21;84.21;99332.88;10319915;28;20042;-60
2022/12/23 02:56:53;;;;;;;0.00;0.00;;;;;;;11.22;83.99;99333.72;10319394;28;20042;-60
2022/12/23 03:01:56;;;;;;;0.00;0.00;;;;;;;11.28;83.42;99335.59;10320908;28;20039;-58
2022/12/23 03:06:59;;;;;;;0.00;0.00;;;;;;;11.21;84.14;99330.19;10322245;28;20046;-58
2022/12/23 03:12:22;;;;;;;0.00;0.00;;;;;;;11.15;83.84;99327.50;10327363;28;20047;-60
2022/12/23 03:17:57;;;;;;;0.00;0.00;;;;;;;11.11;83.93;99335.97;10319246;28;20046;-58
2022/12/23 03:23:17;;;;;;;0.00;0.00;;;;;;;11.15;83.61;99347.13;10311874;28;20042;-60
2022/12/23 03:28:30;;;;;;;0.00;0.00;;;;;;;11.16;83.51;99353.34;10315089;28;20086;-58
2022/12/23 03:33:38;;;;;;;0.00;0.00;;;;;;;11.13;83.06;99351.91;10314354;28;20046;-60
2022/12/23 03:38:42;;;;;;;0.00;0.00;;;;;;;11.12;82.96;99352.94;10315995;28;20066;-59
2022/12/23 03:43:53;;;;;;;0.00;0.00;;;;;;;11.05;82.75;99369.03;10320314;28;20042;-59
2022/12/23 03:49:00;;;;;;;0.00;0.00;;;;;;;10.93;83.01;99369.84;10318729;28;20433;-58
2022/12/23 03:54:08;;;;;;;0.00;0.00;;;;;;;10.97;82.96;99381.88;10312864;28;20046;-59
2022/12/23 03:59:18;;;;;;;0.00;0.00;;;;;;;10.92;82.79;99390.53;10311525;28;20513;-58
2022/12/23 04:04:25;;;;;;;0.00;0.00;;;;;;;10.91;83.35;99397.75;10318465;28;20062;-58
2022/12/23 04:09:27;;;;;;;0.00;0.00;;;;;;;10.84;83.52;99386.19;10319250;28;20050;-59
2022/12/23 04:14:29;;;;;;;0.00;0.00;;;;;;;10.95;83.03;99402.75;10310526;28;20049;-58
2022/12/23 04:19:30;;;;;;;0.00;0.00;;;;;;;10.90;83.74;99420.31;10314321;28;20066;-60
2022/12/23 04:24:32;;;;;;;0.00;0.00;;;;;;;10.87;83.95;99428.78;10316776;28;20049;-58
2022/12/23 04:29:33;;;;;;;0.00;0.00;;;;;;;10.99;83.53;99407.50;10321991;28;20058;-58
2022/12/23 04:34:35;;;;;;;0.00;0.00;;;;;;;11.07;83.78;99401.13;10316837;28;20046;-58
2022/12/23 04:39:36;;;;;;;0.00;0.00;;;;;;;11.03;83.06;99402.56;10314941;28;20039;-58
2022/12/23 04:44:38;;;;;;;0.10;0.10;;;;;;;10.87;83.27;99407.25;10322804;28;20053;-59
2022/12/23 04:49:39;;;;;;;0.00;0.00;;;;;;;10.81;83.24;99405.38;10334019;28;20081;-58
2022/12/23 04:54:40;;;;;;;0.00;0.00;;;;;;;10.71;83.53;99421.88;10333056;28;20485;-58
2022/12/23 04:59:46;;;;;;;0.00;0.00;;;;;;;10.73;83.89;99416.31;10336619;28;20058;-59
2022/12/23 05:04:48;;;;;;;0.00;0.00;;;;;;;10.67;83.44;99404.50;10328561;28;20069;-58
2022/12/23 05:09:49;;;;;;;0.00;0.00;;;;;;;10.59;83.59;99423.47;10334573;28;20058;-58
2022/12/23 05:14:50;;;;;;;0.00;0.00;;;;;;;10.58;83.60;99429.88;10328887;28;20042;-58
2022/12/23 05:19:52;;;;;;;0.00;0.00;;;;;;;10.62;83.48;99411.50;10327978;28;20051;-61
2022/12/23 05:24:53;;;;;;;0.00;0.00;;;;;;;10.67;83.87;99430.56;10332413;28;20039;-60
2022/12/23 05:29:54;;;;;;;0.00;0.00;;;;;;;10.67;83.52;99442.13;10331768;28;20047;-59
2022/12/23 05:34:56;;;;;;;0.15;0.15;;;;;;;10.74;83.74;99436.78;10329326;28;20435;-59
2022/12/23 05:39:57;;;;;;;0.00;0.00;;;;;;;10.75;83.62;99437.63;10329374;28;20043;-59
2022/12/23 05:44:58;;;;;;;0.47;0.47;;;;;;;10.78;83.71;99442.59;10331431;28;20068;-59
2022/12/23 05:50:00;;;;;;;0.00;0.00;;;;;;;10.82;83.37;99438.47;10333611;28;20085;-60
2022/12/23 05:55:02;;;;;;;0.00;0.00;;;;;;;10.83;83.24;99446.34;10330540;28;20053;-58
2022/12/23 06:00:04;;;;;;;0.00;0.00;;;;;;;10.81;83.15;99461.84;10316239;28;20039;-58
2022/12/23 06:05:06;;;;;;;0.00;0.00;;;;;;;10.77;83.33;99463.25;10313185;28;20066;-58
2022/12/23 06:10:08;;;;;;;0.00;0.00;;;;;;;10.77;83.32;99460.56;10314652;28;20066;-58
2022/12/23 06:15:10;;;;;;;0.00;0.00;;;;;;;10.75;82.68;99459.13;10318486;28;20054;-58
2022/12/23 06:20:11;;;;;;;0.00;0.00;;;;;;;10.68;83.21;99462.63;10315945;28;20108;-58
2022/12/23 06:25:21;;;;;;;0.00;0.00;;;;;;;10.70;82.73;99463.25;10322965;28;20131;-59
2022/12/23 06:30:22;;;;;;;0.00;0.00;;;;;;;10.65;82.92;99473.75;10321970;28;20070;-60
2022/12/23 06:35:23;;;;;;;0.00;0.00;;;;;;;10.65;82.70;99481.00;10316093;28;20088;-59
2022/12/23 06:40:27;;;;;;;0.00;0.00;;;;;;;10.57;82.87;99499.97;10320200;28;20066;-57
2022/12/23 06:45:28;;;;;;;0.00;0.00;;;;;;;10.48;82.65;99502.78;10319109;28;20105;-57
2022/12/23 06:50:30;;;;;;;0.00;0.00;;;;;;;10.46;82.52;99494.09;10314860;28;20054;-59
2022/12/23 06:55:31;;;;;;;0.00;0.00;;;;;;;10.40;82.73;99497.56;10316791;28;20520;-59
2022/12/23 07:00:33;;;;;;;0.00;0.00;;;;;;;10.42;82.92;99502.75;10323364;28;20081;-58
2022/12/23 07:05:34;;;;;;;0.00;0.00;;;;;;;10.43;83.44;99509.78;10327275;28;20078;-59
2022/12/23 07:10:38;;;;;;;0.00;0.00;;;;;;;10.44;83.32;99500.69;10328407;28;20076;-58
2022/12/23 07:15:39;;;;;;;0.00;0.00;;;;;;;10.52;83.11;99482.56;10323035;28;20042;-59
2022/12/23 07:20:41;;;;;;;0.00;0.00;;;;;;;10.64;82.83;99490.06;10326798;28;20099;-57
2022/12/23 07:25:43;;;;;;;0.00;0.00;;;;;;;10.79;82.47;99504.22;10330316;28;20046;-60
2022/12/23 07:30:44;;;;;;;0.00;0.00;;;;;;;10.96;81.85;99487.75;10324948;28;20082;-61
2022/12/23 07:35:45;;;;;;;0.00;0.00;;;;;;;11.00;82.10;99514.06;10331697;28;20038;-61
2022/12/23 07:40:47;;;;;;;0.00;0.00;;;;;;;11.03;81.93;99510.94;10335355;28;20039;-61
2022/12/23 07:45:49;;;;;;;0.00;0.00;;;;;;;11.16;81.65;99518.28;10328361;28;20050;-68
2022/12/23 07:51:03;;;;;;;0.00;0.00;;;;;;;11.25;81.73;99543.13;10339217;28;20069;-62
2022/12/23 07:56:05;;;;;;;0.00;0.00;;;;;;;11.32;81.37;99546.69;10353667;28;20058;-60
2022/12/23 08:01:06;;;;;;;0.00;0.00;;;;;;;11.36;81.17;99557.88;10350616;28;20106;-61
2022/12/23 08:06:14;;;;;;;0.00;0.00;;;;;;;11.39;81.23;99552.91;10354489;28;20039;-60
2022/12/23 08:11:15;;;;;;;0.00;0.00;;;;;;;11.40;81.11;99559.13;10353377;28;20130;-61
2022/12/23 08:16:17;;;;;;;0.00;0.00;;;;;;;11.39;81.06;99547.53;10362200;28;20077;-61
2022/12/23 08:21:19;;;;;;;0.00;0.00;;;;;;;11.47;81.29;99546.50;10357258;28;20022;-60
2022/12/23 08:26:22;;;;;;;0.00;0.00;;;;;;;11.52;81.47;99536.81;10351151;28;20154;-61
2022/12/23 08:31:26;;;;;;;0.00;0.00;;;;;;;11.57;80.77;99541.59;10346970;28;20047;-60
2022/12/23 08:36:31;;;;;;;0.00;0.00;;;;;;;11.56;81.55;99545.31;10353595;28;20070;-61
2022/12/23 08:41:36;;;;;;;0.00;0.00;;;;;;;11.61;81.47;99552.78;10351099;28;20046;-61
2022/12/23 08:52:19;;;;;;;0.00;0.00;;;;;;;11.68;80.85;99529.41;2197734;22;20530;-90
2022/12/23 08:57:20;;;;;;;0.00;0.00;;;;;;;11.71;81.00;99539.78;10437254;28;20054;-91
2022/12/23 09:02:22;;;;;;;0.00;0.00;;;;;;;11.75;80.86;99543.72;10459041;28;20067;-90
2022/12/23 09:07:24;;;;;;;0.00;0.00;;;;;;;11.76;80.95;99541.84;10448546;28;20075;-90
2022/12/23 09:12:26;;;;;;;0.00;0.00;;;;;;;11.78;81.05;99550.56;10461718;28;20080;-90
2022/12/23 09:17:28;;;;;;;0.00;0.00;;;;;;;11.80;81.25;99546.63;10448103;28;20620;-90
2022/12/23 09:22:34;;;;;;;0.00;0.00;;;;;;;11.76;81.05;99556.13;10429908;28;20099;-88
2022/12/23 09:27:39;;;;;;;0.00;0.00;;;;;;;11.67;81.51;99550.13;10439032;28;20073;-90
2022/12/23 09:32:41;;;;;;;0.00;0.00;;;;;;;11.76;81.53;99552.63;10452845;28;20072;-90
2022/12/23 09:37:42;;;;;;;0.00;0.00;;;;;;;11.73;81.60;99545.78;10436264;28;20056;-89
2022/12/23 09:43:02;;;;;;;0.00;0.00;;;;;;;11.86;81.43;99526.94;10451854;28;20048;-89
2022/12/23 09:48:10;;;;;;;0.00;0.00;;;;;;;11.99;81.39;99526.19;10474906;28;20048;-89
2022/12/23 09:53:17;;;;;;;0.00;0.00;;;;;;;12.07;81.32;99530.53;10477582;28;20048;-90
2022/12/23 09:58:45;;;;;;;0.00;0.00;;;;;;;12.08;81.20;99516.03;10511404;28;20082;-90
2022/12/23 10:04:14;;;;;;;0.00;0.00;;;;;;;12.04;81.70;99533.63;10517751;28;20048;-92
2022/12/23 10:09:17;;;;;;;0.00;0.00;;;;;;;12.00;81.50;99527.81;10509214;28;20044;-90
2022/12/23 10:14:30;;;;;;;0.00;0.00;;;;;;;12.15;81.46;99518.75;10505080;28;20056;-90
2022/12/23 10:19:40;;;;;;;0.00;0.00;;;;;;;12.23;81.32;99503.19;10508366;28;20131;-89
2022/12/23 10:24:44;;;;;;;0.00;0.00;;;;;;;12.30;81.24;99500.47;10514011;28;20052;-89
2022/12/23 10:29:46;;;;;;;0.00;0.00;;;;;;;12.13;81.73;99508.16;10544900;28;20047;-91
2022/12/23 10:34:58;;;;;;;0.00;0.00;;;;;;;12.10;81.84;99490.56;10504889;28;20127;-90
2022/12/23 10:40:19;;;;;;;0.00;0.00;;;;;;;11.95;81.66;99486.38;10520337;28;20066;-89
2022/12/23 10:45:30;;;;;;;0.00;0.00;;;;;;;12.01;82.01;99481.00;10497580;28;20113;-90
2022/12/23 10:50:50;;;;;;;0.00;0.00;;;;;;;12.02;81.85;99466.50;10498100;28;20367;-89
2022/12/23 10:55:54;;;;;;;0.00;0.00;;;;;;;11.92;81.87;99463.38;10494112;28;20139;-89
2022/12/23 11:00:59;;;;;;;0.00;0.00;;;;;;;11.88;82.37;99464.81;10519791;28;20047;-90
2022/12/23 11:06:01;;;;;;;0.00;0.00;;;;;;;11.93;81.92;99445.34;10511537;28;20118;-90
2022/12/23 11:11:04;;;;;;;0.00;0.00;;;;;;;11.94;82.00;99436.25;10536467;28;20075;-89
2022/12/23 11:16:27;;;;;;;0.00;0.00;;;;;;;11.95;81.89;99436.06;10508961;28;20091;-90
2022/12/23 11:21:30;;;;;;;0.00;0.00;;;;;;;11.84;82.50;99415.91;10544902;28;20056;-91
2022/12/23 11:26:35;;;;;;;0.00;0.00;;;;;;;11.79;82.65;99410.34;10532676;28;20053;-91
2022/12/23 11:31:37;;;;;;;0.00;0.00;;;;;;;11.80;82.94;99381.53;10521367;28;20700;-89
2022/12/23 11:36:40;;;;;;;0.00;0.00;;;;;;;11.73;83.04;99373.47;10507864;28;20052;-90
2022/12/23 11:41:48;;;;;;;0.00;0.00;;;;;;;11.75;83.02;99373.25;10514488;28;20131;-90
2022/12/23 11:46:50;;;;;;;0.00;0.00;;;;;;;11.78;83.08;99359.38;10504968;28;20079;-91
2022/12/23 11:52:04;;;;;;;0.00;0.00;;;;;;;11.83;82.77;99360.44;10526830;28;20309;-92
2022/12/23 11:57:16;;;;;;;0.00;0.00;;;;;;;11.88;82.79;99351.72;10486940;22;20148;-60
2022/12/23 12:02:30;;;;;;;0.00;0.00;;;;;;;11.85;83.07;99336.81;10476196;28;21178;-58
2022/12/23 12:07:32;;;;;;;0.00;0.00;;;;;;;11.95;82.72;99317.56;10458509;28;20052;-59
2022/12/23 12:12:33;;;;;;;0.00;0.00;;;;;;;12.08;82.82;99308.59;10471699;28;20083;-60
2022/12/23 12:17:48;;;;;;;0.00;0.00;;;;;;;12.06;82.71;99311.50;10468534;28;20064;-59
2022/12/23 12:23:07;;;;;;;0.00;0.00;;;;;;;12.03;83.15;99287.69;10469073;28;20072;-59
2022/12/23 12:28:23;;;;;;;0.00;0.00;;;;;;;12.09;82.77;99303.00;10467612;28;20456;-58
2022/12/23 12:33:34;;;;;;;0.00;0.00;;;;;;;12.09;82.76;99299.50;10470031;28;20122;-59
2022/12/23 12:38:37;;;;;;;0.00;0.00;;;;;;;12.12;82.84;99287.47;10462169;28;20068;-60
2022/12/23 12:43:45;;;;;;;0.00;0.00;;;;;;;12.10;82.94;99287.66;10472091;28;20080;-60
2022/12/23 12:48:59;;;;;;;0.00;0.00;;;;;;;12.07;83.17;99280.03;10467646;28;20076;-60
2022/12/23 12:54:18;;;;;;;0.00;0.00;;;;;;;12.20;83.35;99265.66;10426363;28;20041;-60
2022/12/23 12:59:24;;;;;;;0.00;0.00;;;;;;;12.23;83.07;99247.22;10424671;28;20136;-58
2022/12/23 13:04:41;;;;;;;0.00;0.00;;;;;;;12.30;83.00;99220.22;10430022;28;20053;-58
2022/12/23 13:09:52;;;;;;;0.00;0.00;;;;;;;12.36;82.65;99213.16;10439070;28;20141;-58
2022/12/23 13:15:10;;;;;;;0.00;0.00;;;;;;;12.39;82.86;99201.94;10438031;28;20118;-59
2022/12/23 13:20:26;;;;;;;0.00;0.00;;;;;;;12.41;82.54;99199.88;10439129;28;20492;-58
2022/12/23 13:25:41;;;;;;;0.00;0.00;;;;;;;12.42;82.89;99194.25;10436450;28;20049;-59
2022/12/23 13:30:53;;;;;;;0.00;0.00;;;;;;;12.46;82.83;99171.22;10441917;28;20076;-59
2022/12/23 13:36:45;;;;;;;0.00;0.00;;;;;;;12.46;82.38;99165.84;10434505;28;20377;-60
2022/12/23 13:41:53;;;;;;;0.00;0.00;;;;;;;12.30;83.49;99167.19;10409413;28;20045;-59
2022/12/23 13:47:33;;;;;;;0.00;0.00;;;;;;;12.31;83.52;99151.84;10433140;28;20676;-59
2022/12/23 13:53:00;;;;;;;0.00;0.00;;;;;;;12.40;83.38;99125.44;10423863;28;20463;-62
2022/12/23 13:58:15;;;;;;;0.00;0.00;;;;;;;12.06;83.78;99154.44;10457978;28;20041;-60
2022/12/23 14:03:21;;;;;;;0.00;0.00;;;;;;;11.80;84.73;99140.03;10458949;28;20102;-60
2022/12/23 14:08:41;;;;;;;0.00;0.00;;;;;;;11.83;84.42;99139.63;10452674;28;20068;-60
2022/12/23 14:13:53;;;;;;;0.00;0.00;;;;;;;11.85;84.16;99131.34;10449518;28;20053;-61
2022/12/23 14:19:39;;;;;;;0.00;0.00;;;;;;;11.71;84.15;99125.19;10451239;28;20330;-61
2022/12/23 14:25:29;;;;;;;0.00;0.00;;;;;;;11.66;83.91;99106.97;10458199;28;20055;-62
2022/12/23 14:30:36;;;;;;;0.00;0.00;;;;;;;11.85;83.50;99096.34;10406634;28;20045;-62
2022/12/23 14:35:40;;;;;;;0.00;0.00;;;;;;;11.86;83.52;99084.50;10458215;28;20394;-61
2022/12/23 14:40:58;;;;;;;0.00;0.00;;;;;;;11.80;83.63;99080.81;10456796;28;20439;-61
2022/12/23 14:46:04;;;;;;;0.00;0.00;;;;;;;11.86;83.39;99057.59;10453325;28;20049;-63
2022/12/23 14:51:09;;;;;;;0.00;0.00;;;;;;;11.99;83.29;99046.78;10453830;28;20045;-61
2022/12/23 14:56:13;;;;;;;0.00;0.00;;;;;;;11.92;83.04;99054.06;10429998;28;20095;-61
2022/12/23 15:01:18;;;;;;;0.00;0.00;;;;;;;11.69;84.29;99065.34;10441401;28;20049;-62
2022/12/23 15:06:27;;;;;;;0.00;0.00;;;;;;;11.41;84.80;99071.06;10422276;28;20049;-60
2022/12/23 15:11:31;;;;;;;0.00;0.00;;;;;;;11.30;85.01;99086.81;10452309;28;20049;-61
2022/12/23 15:16:36;;;;;;;0.00;0.00;;;;;;;11.25;85.38;99072.34;10456570;28;20045;-61
2022/12/23 15:21:37;;;;;;;0.00;0.00;;;;;;;11.44;84.98;99046.44;10461713;28;20400;-62
2022/12/23 15:26:39;;;;;;;0.00;0.00;;;;;;;11.60;84.32;99083.59;10459410;28;20056;-61
2022/12/23 15:32:01;;;;;;;0.00;0.00;;;;;;;11.62;84.65;99065.38;10445402;28;20045;-59
2022/12/23 15:37:02;;;;;;;0.00;0.00;;;;;;;11.63;84.80;99068.88;10430180;28;20073;-58
2022/12/23 15:42:24;;;;;;;0.00;0.00;;;;;;;11.89;83.90;99052.63;10434924;28;20160;-60
2022/12/23 15:47:35;;;;;;;0.00;0.00;;;;;;;12.04;83.48;99056.88;10423854;28;20049;-60
2022/12/23 15:52:39;;;;;;;0.00;0.00;;;;;;;12.02;83.52;99059.78;10433541;28;20056;-58
2022/12/23 15:57:47;;;;;;;0.00;0.00;;;;;;;12.02;83.36;99049.00;10435767;28;20076;-60
2022/12/23 16:02:53;;;;;;;0.00;0.00;;;;;;;12.00;83.41;99042.19;10433173;28;20044;-59
2022/12/23 16:08:12;;;;;;;0.00;0.00;;;;;;;12.00;83.65;99040.31;10437746;28;20060;-58
2022/12/23 16:13:18;;;;;;;0.00;0.00;;;;;;;12.05;83.48;99048.59;10430653;28;20118;-61
2022/12/23 16:18:20;;;;;;;0.00;0.00;;;;;;;12.10;83.04;99029.06;10428173;28;20073;-59
2022/12/23 16:23:23;;;;;;;0.00;0.00;;;;;;;12.09;82.86;99016.66;10431575;28;20071;-60
2022/12/23 16:28:28;;;;;;;0.00;0.00;;;;;;;12.00;83.55;99016.09;10428387;28;20088;-62
2022/12/23 16:33:52;;;;;;;0.00;0.00;;;;;;;12.07;83.15;99034.91;10436696;28;20045;-60
2022/12/23 16:39:05;;;;;;;0.00;0.00;;;;;;;12.10;83.38;99024.53;10436740;28;20596;-60
2022/12/23 16:44:07;;;;;;;0.00;0.00;;;;;;;12.04;83.83;99044.22;10437958;28;20045;-60
2022/12/23 16:49:14;;;;;;;0.00;0.00;;;;;;;12.07;84.94;99035.72;10440610;28;20057;-61
2022/12/23 16:54:18;;;;;;;0.00;0.00;;;;;;;12.16;85.11;99025.50;10438494;28;20049;-60
2022/12/23 16:59:19;;;;;;;0.00;0.00;;;;;;;12.24;85.19;99044.09;10445133;28;20423;-60
2022/12/23 17:04:21;;;;;;;0.00;0.00;;;;;;;12.25;85.53;99034.97;10445344;28;20128;-60
2022/12/23 17:09:22;;;;;;;0.00;0.00;;;;;;;12.41;85.62;99048.94;10442542;28;20049;-61
2022/12/23 17:14:24;;;;;;;0.00;0.00;;;;;;;12.52;85.40;99061.72;10446437;28;20041;-59
2022/12/23 17:19:25;;;;;;;0.00;0.00;;;;;;;12.59;85.73;99059.75;10449773;28;20079;-61
2022/12/23 17:24:30;;;;;;;0.00;0.00;;;;;;;12.66;85.82;99038.97;10439287;28;20045;-61
2022/12/23 17:29:31;;;;;;;0.00;0.00;;;;;;;12.71;85.48;99027.50;10447763;28;20056;-61
2022/12/23 17:34:33;;;;;;;0.00;0.00;;;;;;;12.72;85.12;99047.19;10450505;28;20065;-60
2022/12/23 17:39:34;;;;;;;0.00;0.00;;;;;;;12.76;85.07;99061.91;10455229;28;20096;-59
2022/12/23 17:44:35;;;;;;;0.00;0.00;;;;;;;12.73;85.39;99071.25;10448853;28;20052;-61
2022/12/23 17:49:37;;;;;;;0.00;0.00;;;;;;;12.74;84.98;99086.41;10450661;28;20049;-62
2022/12/23 17:54:38;;;;;;;0.00;0.00;;;;;;;12.67;85.07;99078.34;10458137;28;20071;-63
2022/12/23 17:59:39;;;;;;;0.00;0.00;;;;;;;12.73;84.91;99076.66;10452913;28;20049;-61
2022/12/23 18:04:41;;;;;;;0.00;0.00;;;;;;;12.71;84.77;99089.53;10455395;28;20737;-63
2022/12/23 18:09:42;;;;;;;0.00;0.00;;;;;;;12.75;84.26;99084.53;10445217;28;20053;-62
2022/12/23 18:14:44;;;;;;;0.00;0.00;;;;;;;12.67;84.71;99096.41;10449223;28;20045;-60
2022/12/23 18:19:45;;;;;;;0.00;0.00;;;;;;;12.66;84.44;99094.78;10456698;28;20075;-60
2022/12/23 18:24:48;;;;;;;0.00;0.00;;;;;;;12.61;84.72;99113.47;10455842;28;20049;-61
2022/12/23 18:29:57;;;;;;;0.00;0.00;;;;;;;12.61;84.08;99105.38;10460374;28;20045;-59
2022/12/23 18:34:58;;;;;;;0.00;0.00;;;;;;;12.58;83.89;99119.28;10460036;28;20048;-60
2022/12/23 18:40:00;;;;;;;0.00;0.00;;;;;;;12.50;83.79;99123.09;10458579;28;20049;-63
2022/12/23 18:45:01;;;;;;;0.00;0.00;;;;;;;12.42;83.69;99131.44;10461496;28;20046;-60
2022/12/23 18:50:03;;;;;;;0.00;0.00;;;;;;;12.38;83.67;99139.16;10458005;28;20053;-62
2022/12/23 18:55:05;;;;;;;0.00;0.00;;;;;;;12.29;83.56;99143.97;10459253;28;20041;-61
2022/12/23 19:00:15;;;;;;;0.22;0.22;;;;;;;12.19;83.50;99169.72;10457089;28;20049;-61
2022/12/23 19:05:25;;;;;;;0.00;0.00;;;;;;;12.19;83.18;99175.94;10460773;28;20139;-61
2022/12/23 19:10:32;;;;;;;0.00;0.00;;;;;;;12.18;83.40;99185.06;10462998;28;20050;-62
2022/12/23 19:15:33;;;;;;;0.00;0.00;;;;;;;12.14;83.48;99191.09;10460407;28;20057;-61
2022/12/23 19:20:34;;;;;;;0.00;0.00;;;;;;;12.13;83.53;99194.84;10453749;28;20363;-60
2022/12/23 19:25:40;;;;;;;0.00;0.00;;;;;;;12.13;83.63;99198.34;10452154;28;20072;-62
2022/12/23 19:30:41;;;;;;;0.00;0.00;;;;;;;12.15;83.23;99206.22;10456952;28;20053;-61
2022/12/23 19:35:43;;;;;;;0.00;0.00;;;;;;;12.19;83.21;99226.31;10457509;28;20507;-61
2022/12/23 19:40:44;;;;;;;0.00;0.00;;;;;;;12.19;83.63;99237.09;10455544;28;20048;-60
2022/12/23 19:45:55;;;;;;;0.00;0.00;;;;;;;12.22;83.36;99244.72;10459538;28;20102;-61
2022/12/23 19:50:58;;;;;;;0.00;0.00;;;;;;;12.26;83.46;99256.72;10457377;28;20042;-62
2022/12/23 19:56:04;;;;;;;0.00;0.00;;;;;;;12.30;83.25;99276.81;10453370;28;20053;-62
2022/12/23 20:01:12;;;;;;;0.00;0.00;;;;;;;12.30;83.02;99282.19;10456617;28;20268;-60
2022/12/23 20:06:17;;;;;;;0.00;0.00;;;;;;;12.33;83.45;99275.56;10444282;28;20454;-60
2022/12/23 20:11:22;;;;;;;0.00;0.00;;;;;;;12.37;82.74;99266.03;10443619;28;20076;-63
2022/12/23 20:16:24;;;;;;;0.00;0.00;;;;;;;12.36;83.02;99288.59;10463735;28;20113;-61
2022/12/23 20:21:25;;;;;;;0.00;0.00;;;;;;;12.34;82.75;99291.50;10435792;28;20610;-60
2022/12/23 20:26:27;;;;;;;0.00;0.00;;;;;;;12.30;83.00;99298.38;10451123;28;20056;-61
2022/12/23 20:31:31;;;;;;;0.00;0.00;;;;;;;12.27;82.75;99312.28;10452703;28;20056;-61
2022/12/23 20:36:35;;;;;;;0.00;0.00;;;;;;;12.30;83.22;99338.78;10446329;28;20042;-63
2022/12/23 20:41:36;;;;;;;0.00;0.00;;;;;;;12.34;82.96;99342.72;10455955;28;20063;-59
2022/12/23 20:46:38;;;;;;;0.00;0.00;;;;;;;12.33;82.49;99332.16;10456000;28;20386;-60
2022/12/23 20:51:39;;;;;;;0.00;0.00;;;;;;;12.33;82.66;99343.75;10444899;28;20057;-60
2022/12/23 20:56:41;;;;;;;0.00;0.00;;;;;;;12.37;82.57;99345.00;10449751;28;20061;-59
2022/12/23 21:01:42;;;;;;;0.00;0.00;;;;;;;12.36;82.84;99347.91;10459436;28;20053;-62
2022/12/23 21:06:44;;;;;;;0.00;0.00;;;;;;;12.41;82.78;99343.53;10454525;28;20076;-60
2022/12/23 21:11:46;;;;;;;0.00;0.00;;;;;;;12.43;82.27;99344.13;10454205;28;20060;-58
2022/12/23 21:16:48;;;;;;;0.08;0.08;;;;;;;12.39;82.91;99353.69;10455967;28;20108;-59
2022/12/23 21:21:51;;;;;;;0.00;0.00;;;;;;;12.40;82.90;99368.84;10466227;28;20051;-59
2022/12/23 21:26:53;;;;;;;0.00;0.00;;;;;;;12.42;82.59;99379.38;10459665;28;20072;-62
2022/12/23 21:31:58;;;;;;;0.00;0.00;;;;;;;12.40;82.79;99389.56;10470766;28;20041;-61
2022/12/23 21:37:00;;;;;;;0.00;0.00;;;;;;;12.39;82.50;99382.53;10471492;28;20069;-61
2022/12/23 21:42:01;;;;;;;0.00;0.00;;;;;;;12.38;81.93;99375.47;10469396;28;20040;-62
2022/12/23 21:47:02;;;;;;;0.00;0.00;;;;;;;12.28;82.45;99395.63;10466231;28;20049;-60
2022/12/23 21:52:04;;;;;;;0.00;0.00;;;;;;;12.25;81.84;99409.50;10469833;28;20041;-60
2022/12/23 21:57:05;;;;;;;0.00;0.00;;;;;;;12.28;81.96;99410.94;10459195;28;20072;-59
2022/12/23 22:02:13;;;;;;;0.00;0.00;;;;;;;12.26;82.04;99430.03;10462859;28;20049;-63
2022/12/23 22:07:15;;;;;;;0.00;0.00;;;;;;;12.33;81.36;99431.88;10463521;28;20048;-62
2022/12/23 22:12:16;;;;;;;0.00;0.00;;;;;;;12.21;81.98;99426.31;10465884;28;20044;-62
2022/12/23 22:17:17;;;;;;;0.00;0.00;;;;;;;12.18;81.33;99426.69;10470138;28;20056;-59
2022/12/23 22:22:18;;;;;;;0.00;0.00;;;;;;;12.12;80.69;99446.41;10469409;28;20045;-62
2022/12/23 22:27:20;;;;;;;0.00;0.00;;;;;;;11.97;80.77;99447.44;10468167;28;20066;-62
2022/12/23 22:32:22;;;;;;;0.00;0.00;;;;;;;11.92;80.70;99441.84;10469954;28;20049;-61
2022/12/23 22:37:23;;;;;;;0.00;0.00;;;;;;;11.93;80.85;99448.06;10467599;28;20045;-61
2022/12/23 22:42:25;;;;;;;0.00;0.00;;;;;;;11.95;80.34;99467.53;10465436;28;20044;-63
2022/12/23 22:47:26;;;;;;;0.00;0.00;;;;;;;11.91;80.77;99467.13;10466301;28;20045;-60
2022/12/23 22:52:28;;;;;;;0.00;0.00;;;;;;;11.93;80.56;99481.22;10464674;28;20041;-61
2022/12/23 22:57:29;;;;;;;0.00;0.00;;;;;;;11.97;81.16;99482.47;10469241;28;20049;-60
2022/12/23 23:02:30;;;;;;;0.00;0.00;;;;;;;11.93;81.06;99483.91;10471302;28;20060;-61
2022/12/23 23:07:32;;;;;;;0.00;0.00;;;;;;;11.97;81.17;99513.97;10466070;28;20049;-63
2022/12/23 23:12:33;;;;;;;0.00;0.00;;;;;;;12.00;81.28;99514.34;10472791;28;20044;-64
2022/12/23 23:17:35;;;;;;;0.00;0.00;;;;;;;12.11;81.16;99534.47;10475828;28;20034;-63
2022/12/23 23:22:36;;;;;;;0.00;0.00;;;;;;;12.08;81.13;99533.03;10468927;28;20084;-64
2022/12/23 23:27:37;;;;;;;0.00;0.00;;;;;;;12.08;81.21;99533.03;10464104;28;20037;-62
2022/12/23 23:32:39;;;;;;;0.00;0.00;;;;;;;12.06;81.03;99536.94;10467955;28;20052;-59
2022/12/23 23:37:40;;;;;;;0.00;0.00;;;;;;;12.08;81.45;99533.03;10464973;28;20080;-62
2022/12/23 23:42:42;;;;;;;0.00;0.00;;;;;;;12.06;80.87;99558.50;10464049;28;20049;-63
2022/12/23 23:47:43;;;;;;;0.00;0.00;;;;;;;12.15;81.61;99546.50;10467715;28;20052;-63
2022/12/23 23:52:45;;;;;;;0.00;0.00;;;;;;;12.22;81.47;99574.28;10464260;28;20083;-64
2022/12/23 23:57:47;;;;;;;0.00;0.00;;;;;;;12.30;81.29;99574.09;10465387;28;20049;-60
